METAR Data
IDs: Format: Raw Decoded Include TAF

Data at: 0434 UTC 18 Oct 2018

METAR for:KBAK (Columbus Muni, IN, US)
Text:KBAK 180150Z 00000KT 10SM SKC 04/M01 A3043 RMK LAST
Temperature: 4.0°C ( 39°F)
Dewpoint: -1.0°C ( 30°F) [RH = 70%]
Pressure (altimeter):30.43 inches Hg (1030.6 mb)
Winds:calm
Visibility:10 or more sm (16+ km)
Ceiling:at least 12,000 feet AGL
Clouds:clear skies